createdAt,value
2019-01-24T00:02:11.439Z,91.08
2019-01-24T00:04:42.558Z,90.62
2019-01-24T00:07:16.349Z,90.56
2019-01-24T00:09:47.164Z,90.13
2019-01-24T00:12:18.863Z,89.99
2019-01-24T00:14:50.840Z,90.07
2019-01-24T00:17:22.014Z,90.84
2019-01-24T00:19:54.881Z,91.09
2019-01-24T00:22:25.997Z,90.77
2019-01-24T00:24:57.976Z,90.87
2019-01-24T00:27:31.289Z,90.96
2019-01-24T00:30:05.495Z,90.67
2019-01-24T00:32:36.430Z,90.65
2019-01-24T00:35:07.462Z,90.20
2019-01-24T00:37:38.620Z,90.02
2019-01-24T00:40:11.362Z,90.04
2019-01-24T00:42:44.679Z,90.00
2019-01-24T00:45:16.876Z,90.14
2019-01-24T00:47:47.741Z,89.94
2019-01-24T00:50:19.746Z,90.37
2019-01-24T00:52:51.869Z,90.42
2019-01-24T00:55:23.700Z,90.04
2019-01-24T00:57:58.487Z,89.91
2019-01-24T01:00:29.302Z,90.02
2019-01-24T01:03:00.752Z,90.00
2019-01-24T01:05:31.970Z,90.45
2019-01-24T01:08:02.778Z,90.47
2019-01-24T01:10:34.010Z,90.33
2019-01-24T01:13:05.098Z,90.62
2019-01-24T01:15:36.029Z,90.85
2019-01-24T01:18:07.522Z,91.27
2019-01-24T01:20:39.389Z,91.43
2019-01-24T01:23:12.473Z,91.57
2019-01-24T01:25:43.340Z,91.70
2019-01-24T01:28:14.342Z,91.84
2019-01-24T01:30:45.203Z,91.78
2019-01-24T01:33:16.351Z,91.69
2019-01-24T01:35:47.462Z,91.71
2019-01-24T01:38:18.298Z,91.92
2019-01-24T01:40:51.768Z,91.98
2019-01-24T01:43:28.744Z,92.02
2019-01-24T01:46:01.553Z,92.13
2019-01-24T01:48:32.774Z,92.06
2019-01-24T01:51:03.813Z,92.13
2019-01-24T01:53:34.763Z,92.34
2019-01-24T01:56:05.679Z,92.08
2019-01-24T01:58:37.638Z,92.31
2019-01-24T02:01:10.919Z,92.34
2019-01-24T02:03:44.815Z,92.24
2019-01-24T02:06:15.559Z,92.26
2019-01-24T02:08:47.305Z,92.63
2019-01-24T02:11:18.250Z,92.64
2019-01-24T02:13:49.034Z,92.67
2019-01-24T02:16:20.175Z,92.45
2019-01-24T02:18:51.105Z,92.42
2019-01-24T02:21:23.946Z,92.38
2019-01-24T02:23:54.738Z,92.35
2019-01-24T02:26:25.607Z,92.22
2019-01-24T02:28:57.294Z,92.19
2019-01-24T02:31:28.183Z,92.29
2019-01-24T02:33:59.037Z,92.34
2019-01-24T02:36:29.977Z,92.36
2019-01-24T02:39:00.882Z,92.43
2019-01-24T02:41:33.280Z,92.47
2019-01-24T02:44:04.200Z,92.68
2019-01-24T02:46:34.974Z,92.34
2019-01-24T02:49:05.812Z,92.19
2019-01-24T02:51:36.902Z,92.30
2019-01-24T02:54:07.764Z,92.41
2019-01-24T02:56:39.220Z,92.42
2019-01-24T02:59:10.449Z,92.50
2019-01-24T03:01:41.279Z,92.42
2019-01-24T03:04:12.458Z,92.41
2019-01-24T03:06:43.452Z,92.39
2019-01-24T03:09:15.409Z,92.70
2019-01-24T03:11:46.584Z,92.56
2019-01-24T03:14:17.454Z,92.62
2019-01-24T03:16:48.374Z,93.34
2019-01-24T03:19:19.686Z,93.64
2019-01-24T03:21:51.878Z,93.91
2019-01-24T03:24:22.762Z,94.02
2019-01-24T03:26:56.675Z,94.26
2019-01-24T03:29:28.506Z,94.08
2019-01-24T03:31:59.750Z,94.33
2019-01-24T03:34:30.584Z,94.22
2019-01-24T03:37:02.765Z,94.28
2019-01-24T03:39:33.585Z,94.25
2019-01-24T03:42:04.541Z,94.11
2019-01-24T03:44:35.646Z,93.77
2019-01-24T03:47:09.394Z,93.68
2019-01-24T03:49:43.193Z,93.52
2019-01-24T03:52:14.324Z,93.73
2019-01-24T03:54:45.207Z,93.71
2019-01-24T03:57:16.110Z,93.68
2019-01-24T03:59:46.902Z,93.61
2019-01-24T04:02:19.108Z,93.94
2019-01-24T04:04:49.957Z,93.98
2019-01-24T04:07:20.810Z,93.83
2019-01-24T04:09:51.621Z,93.87
2019-01-24T04:12:23.712Z,94.07
2019-01-24T04:14:54.614Z,94.07
2019-01-24T04:17:27.810Z,93.98
2019-01-24T04:19:59.616Z,93.90
2019-01-24T04:22:30.920Z,93.69
2019-01-24T04:25:01.705Z,93.63
2019-01-24T04:27:33.743Z,93.50
2019-01-24T04:30:10.965Z,93.71
2019-01-24T04:32:43.389Z,93.73
2019-01-24T04:35:20.106Z,93.94
2019-01-24T04:37:49.255Z,93.86
2019-01-24T04:40:21.515Z,93.71
2019-01-24T04:42:55.363Z,94.07
2019-01-24T04:45:26.138Z,94.07
2019-01-24T04:47:59.916Z,94.53
2019-01-24T04:50:41.105Z,94.77
2019-01-24T04:53:13.547Z,94.28
2019-01-24T04:55:50.134Z,94.00
2019-01-24T04:58:26.322Z,94.36
2019-01-24T05:00:54.812Z,94.22
2019-01-24T05:03:45.370Z,94.36
2019-01-24T05:06:19.766Z,94.20
2019-01-24T05:08:50.924Z,94.19
2019-01-24T05:11:23.175Z,94.30
2019-01-24T05:13:55.770Z,94.31
2019-01-24T05:16:26.826Z,94.18
2019-01-24T05:18:58.962Z,94.23
2019-01-24T05:21:30.902Z,94.80
2019-01-24T05:24:01.819Z,94.94
2019-01-24T05:26:32.649Z,94.71
2019-01-24T05:29:03.527Z,94.56
2019-01-24T05:31:37.464Z,94.39
2019-01-24T05:34:12.757Z,94.53
2019-01-24T05:36:46.821Z,94.28
2019-01-24T05:39:17.979Z,94.62
2019-01-24T05:41:50.366Z,94.40
2019-01-24T05:44:21.256Z,94.46
2019-01-24T05:46:52.193Z,94.33
2019-01-24T05:49:24.336Z,94.13
2019-01-24T05:51:55.147Z,94.00
2019-01-24T05:54:26.029Z,93.88
2019-01-24T05:56:58.435Z,93.73
2019-01-24T05:59:29.468Z,93.79
2019-01-24T06:02:02.836Z,93.64
2019-01-24T06:04:35.488Z,93.70
2019-01-24T06:07:06.804Z,93.62
2019-01-24T06:09:41.007Z,93.77
2019-01-24T06:12:11.819Z,93.69
2019-01-24T06:14:43.728Z,93.63
2019-01-24T06:17:15.664Z,93.69
2019-01-24T06:19:46.657Z,93.73
2019-01-24T06:22:20.543Z,93.73
2019-01-24T06:24:54.826Z,93.60
2019-01-24T06:27:27.167Z,93.85
2019-01-24T06:29:57.980Z,94.17
2019-01-24T06:32:30.751Z,93.97
2019-01-24T06:35:01.582Z,94.18
2019-01-24T06:37:33.465Z,93.93
2019-01-24T06:40:04.373Z,93.64
2019-01-24T06:42:35.786Z,93.96
2019-01-24T06:45:08.379Z,93.99
2019-01-24T06:47:39.330Z,94.09
2019-01-24T06:50:11.887Z,94.36
2019-01-24T06:52:44.849Z,94.39
2019-01-24T06:55:18.183Z,94.42
2019-01-24T06:57:50.144Z,94.16
2019-01-24T07:00:22.582Z,94.14
2019-01-24T07:02:53.387Z,94.14
2019-01-24T07:05:24.392Z,94.08
2019-01-24T07:07:55.566Z,93.89
2019-01-24T07:10:26.937Z,93.67
2019-01-24T07:13:03.980Z,93.67
2019-01-24T07:15:37.324Z,93.26
2019-01-24T07:18:08.624Z,93.01
2019-01-24T07:20:41.577Z,93.09
2019-01-24T07:23:13.015Z,93.46
2019-01-24T07:25:43.815Z,93.46
2019-01-24T07:28:18.823Z,93.37
2019-01-24T07:30:49.723Z,93.26
2019-01-24T07:33:29.344Z,93.43
2019-01-24T07:36:02.352Z,93.61
2019-01-24T07:38:33.509Z,93.58
2019-01-24T07:41:06.874Z,93.74
2019-01-24T07:43:38.839Z,93.84
2019-01-24T07:46:11.753Z,93.96
2019-01-24T07:48:42.774Z,93.97
2019-01-24T07:51:13.594Z,94.06
2019-01-24T07:53:45.576Z,93.62
2019-01-24T07:56:17.709Z,93.21
2019-01-24T07:58:48.498Z,93.33
2019-01-24T08:01:19.310Z,93.46
2019-01-24T08:03:51.014Z,93.16
2019-01-24T08:06:22.003Z,92.80
2019-01-24T08:08:53.047Z,92.94
2019-01-24T08:11:24.342Z,93.20
2019-01-24T08:13:55.363Z,93.16
2019-01-24T08:16:26.594Z,92.81
2019-01-24T08:19:00.356Z,93.18
2019-01-24T08:21:31.226Z,93.14
2019-01-24T08:24:02.390Z,92.89
2019-01-24T08:26:33.466Z,92.71
2019-01-24T08:29:05.038Z,92.16
2019-01-24T08:31:36.202Z,92.23
2019-01-24T08:34:08.069Z,92.22
2019-01-24T08:36:40.492Z,92.27
2019-01-24T08:39:11.280Z,92.26
2019-01-24T08:41:42.568Z,92.12
2019-01-24T08:44:16.778Z,92.25
2019-01-24T08:46:52.057Z,92.10
2019-01-24T08:49:23.464Z,91.80
2019-01-24T08:51:56.193Z,91.75
2019-01-24T08:54:27.095Z,91.47
2019-01-24T08:56:58.427Z,91.30
2019-01-24T08:59:29.687Z,91.13
2019-01-24T09:02:06.444Z,90.87
2019-01-24T09:04:38.848Z,90.56
2019-01-24T09:07:15.382Z,90.79
2019-01-24T09:09:56.931Z,90.71
2019-01-24T09:12:30.508Z,90.77
2019-01-24T09:15:12.484Z,90.48
2019-01-24T09:17:43.469Z,90.48
2019-01-24T09:20:15.745Z,89.73
2019-01-24T09:22:47.111Z,89.59
2019-01-24T09:25:19.010Z,89.32
2019-01-24T09:27:50.155Z,89.00
2019-01-24T09:30:23.168Z,88.73
2019-01-24T09:32:55.133Z,88.91
2019-01-24T09:35:25.966Z,88.88
2019-01-24T09:38:00.658Z,88.55
2019-01-24T09:40:31.402Z,87.76
2019-01-24T09:43:03.200Z,87.61
2019-01-24T09:45:34.450Z,88.38
2019-01-24T09:48:32.214Z,87.84
2019-01-24T09:51:06.630Z,88.00
2019-01-24T09:53:38.476Z,87.54
2019-01-24T09:56:09.954Z,86.72
2019-01-24T09:58:40.814Z,86.96
2019-01-24T10:01:11.667Z,86.63
2019-01-24T10:03:42.745Z,86.50
2019-01-24T10:06:14.578Z,85.59
2019-01-24T10:08:47.917Z,85.85
2019-01-24T10:11:24.232Z,85.41
2019-01-24T10:13:55.727Z,85.31
2019-01-24T10:16:28.443Z,85.25
2019-01-24T10:18:59.351Z,85.51
2019-01-24T10:21:31.715Z,85.19
2019-01-24T10:24:10.979Z,85.02
2019-01-24T10:26:42.028Z,84.92
2019-01-24T10:29:23.743Z,84.65
2019-01-24T10:31:54.527Z,84.70
2019-01-24T10:34:29.866Z,84.76
2019-01-24T10:37:01.069Z,84.45
2019-01-24T10:39:31.895Z,84.82
2019-01-24T10:42:02.684Z,84.66
2019-01-24T10:44:33.741Z,84.44
2019-01-24T10:47:04.689Z,84.77
2019-01-24T10:49:38.364Z,85.41
2019-01-24T10:52:13.059Z,85.82
2019-01-24T10:54:44.580Z,85.17
2019-01-24T10:57:15.441Z,84.90
2019-01-24T10:59:46.893Z,84.99
2019-01-24T11:02:18.898Z,84.40
2019-01-24T11:04:49.715Z,84.03
2019-01-24T11:07:27.969Z,84.52
2019-01-24T11:09:58.783Z,85.20
2019-01-24T11:12:51.840Z,85.25
2019-01-24T11:15:30.148Z,85.41
2019-01-24T11:18:02.734Z,85.52
2019-01-24T11:20:35.944Z,84.99
2019-01-24T11:23:07.195Z,84.82
2019-01-24T11:25:38.355Z,84.85
2019-01-24T11:28:09.714Z,85.04
2019-01-24T11:30:40.734Z,85.19
2019-01-24T11:33:13.273Z,85.24
2019-01-24T11:35:53.547Z,84.24
2019-01-24T11:38:45.147Z,84.82
2019-01-24T11:41:19.678Z,83.97
2019-01-24T11:44:00.168Z,83.87
2019-01-24T11:46:53.156Z,83.52
2019-01-24T11:49:44.068Z,84.04
2019-01-24T11:52:15.960Z,84.29
2019-01-24T11:54:48.016Z,84.64
2019-01-24T11:57:19.097Z,84.96
2019-01-24T11:59:50.008Z,85.19
2019-01-24T12:02:21.863Z,85.41
2019-01-24T12:04:52.831Z,85.44
2019-01-24T12:07:27.494Z,85.56
2019-01-24T12:09:59.523Z,85.33
2019-01-24T12:12:30.717Z,85.66
2019-01-24T12:15:01.536Z,86.18
2019-01-24T12:17:32.389Z,86.31
2019-01-24T12:20:03.420Z,85.98
2019-01-24T12:22:38.661Z,85.77
2019-01-24T12:25:09.846Z,85.74
2019-01-24T12:27:41.176Z,85.94
2019-01-24T12:30:21.759Z,86.28
2019-01-24T12:32:52.693Z,86.83
2019-01-24T12:35:24.120Z,86.75
2019-01-24T12:37:58.239Z,86.68
2019-01-24T12:40:30.042Z,85.96
2019-01-24T12:43:01.039Z,85.98
2019-01-24T12:45:34.957Z,86.29
2019-01-24T12:48:08.354Z,85.81
2019-01-24T12:50:41.523Z,85.47
2019-01-24T12:53:13.699Z,85.99
2019-01-24T12:55:45.404Z,87.44
2019-01-24T12:58:17.138Z,86.80
2019-01-24T13:00:50.839Z,85.52
2019-01-24T13:03:22.833Z,85.36
2019-01-24T13:05:54.967Z,85.93
2019-01-24T13:08:29.225Z,86.42
2019-01-24T13:11:01.605Z,86.45
2019-01-24T13:13:36.671Z,86.75
2019-01-24T13:20:21.560Z,85.65
2019-01-24T13:22:56.001Z,85.46
2019-01-24T13:25:29.303Z,85.57
2019-01-24T13:28:00.522Z,85.08
2019-01-24T13:30:33.092Z,84.84
2019-01-24T13:33:06.185Z,84.28
2019-01-24T13:35:37.266Z,84.88
2019-01-24T13:38:08.813Z,84.95
2019-01-24T13:40:44.388Z,84.52
2019-01-24T13:43:15.393Z,85.14
2019-01-24T13:45:46.535Z,84.47
2019-01-24T13:48:23.466Z,85.41
2019-01-24T13:50:57.276Z,85.55
2019-01-24T13:53:31.933Z,85.40
2019-01-24T13:56:04.011Z,85.70
2019-01-24T13:58:34.844Z,85.40
2019-01-24T14:01:12.676Z,85.15
2019-01-24T14:04:11.051Z,85.24
2019-01-24T14:06:43.927Z,85.40
2019-01-24T14:09:16.003Z,86.11
2019-01-24T14:11:47.221Z,86.30
2019-01-24T14:14:20.762Z,86.01
2019-01-24T14:16:52.423Z,85.10
2019-01-24T14:19:26.267Z,85.35
2019-01-24T14:21:57.414Z,85.73
2019-01-24T14:24:28.524Z,85.70
2019-01-24T14:26:59.379Z,85.66
2019-01-24T14:29:39.282Z,85.87
2019-01-24T14:32:23.515Z,85.89
2019-01-24T14:34:54.664Z,85.57
2019-01-24T14:37:39.645Z,86.02
2019-01-24T14:40:06.510Z,86.75
2019-01-24T14:42:38.683Z,87.32
2019-01-24T14:45:19.228Z,87.32
2019-01-24T14:47:51.624Z,87.50
2019-01-24T14:50:44.384Z,87.91
2019-01-24T14:53:17.831Z,88.16
2019-01-24T14:55:48.711Z,88.29
2019-01-24T14:58:22.613Z,88.65
2019-01-24T15:01:01.040Z,88.72
2019-01-24T15:03:32.081Z,88.87
2019-01-24T15:06:03.332Z,88.86
2019-01-24T15:08:35.628Z,89.09
2019-01-24T15:11:07.732Z,89.21
2019-01-24T15:13:41.437Z,89.57
2019-01-24T15:16:12.482Z,89.55
2019-01-24T15:18:43.505Z,89.64
2019-01-24T15:21:16.765Z,90.04
2019-01-24T15:23:53.149Z,90.73
2019-01-24T15:26:25.281Z,90.66
2019-01-24T15:28:56.088Z,90.38
2019-01-24T15:31:29.107Z,90.58
2019-01-24T15:34:03.017Z,90.91
2019-01-24T15:36:40.047Z,91.16
2019-01-24T15:39:15.457Z,91.44
2019-01-24T15:41:54.495Z,91.56
2019-01-24T15:44:28.921Z,92.07
2019-01-24T15:47:02.913Z,92.23
2019-01-24T15:49:36.918Z,92.37
2019-01-24T15:52:13.743Z,92.64
2019-01-24T15:54:53.413Z,92.68
2019-01-24T15:57:32.202Z,92.75
2019-01-24T16:00:09.424Z,92.94
2019-01-24T16:02:41.968Z,93.12
2019-01-24T16:05:15.092Z,93.29
2019-01-24T16:07:47.732Z,93.28
2019-01-24T16:10:19.631Z,93.64
2019-01-24T16:12:51.679Z,94.05
2019-01-24T16:15:25.364Z,94.23
2019-01-24T16:18:03.927Z,94.26
2019-01-24T16:20:42.756Z,94.22
2019-01-24T16:23:17.824Z,94.40
2019-01-24T16:25:55.658Z,94.65
2019-01-24T16:28:29.801Z,94.52
2019-01-24T16:31:12.739Z,94.78
2019-01-24T16:33:54.579Z,94.76
2019-01-24T16:36:27.013Z,94.74
2019-01-24T16:39:03.371Z,95.05
2019-01-24T16:41:36.113Z,95.13
2019-01-24T16:44:07.510Z,95.21
2019-01-24T16:46:40.174Z,95.28
2019-01-24T16:49:11.192Z,95.37
2019-01-24T16:51:49.339Z,95.58
2019-01-24T16:54:42.530Z,95.64
2019-01-24T16:57:23.569Z,95.63
2019-01-24T16:59:56.350Z,95.78
2019-01-24T17:02:27.612Z,95.87
2019-01-24T17:05:06.458Z,95.84
2019-01-24T17:07:51.574Z,95.93
2019-01-24T17:10:23.918Z,95.57
2019-01-24T17:13:00.093Z,95.97
2019-01-24T17:15:39.760Z,96.08
2019-01-24T17:18:22.023Z,96.19
2019-01-24T17:21:00.606Z,96.32
2019-01-24T17:23:38.743Z,96.45
2019-01-24T17:26:23.985Z,96.51
2019-01-24T17:28:53.306Z,96.60
2019-01-24T17:31:28.206Z,96.50
2019-01-24T17:34:01.891Z,96.42
2019-01-24T17:36:40.270Z,96.32
2019-01-24T17:39:14.908Z,96.45
2019-01-24T17:41:57.876Z,96.71
2019-01-24T17:44:31.567Z,96.62
2019-01-24T17:47:06.981Z,96.35
2019-01-24T17:49:40.450Z,96.40
2019-01-24T17:52:18.017Z,96.68
2019-01-24T17:54:51.597Z,97.26
2019-01-24T17:57:31.385Z,97.60
2019-01-24T18:00:02.482Z,97.60
2019-01-24T18:02:38.597Z,97.38
2019-01-24T18:05:12.028Z,97.40
2019-01-24T18:07:43.330Z,97.10
2019-01-24T18:10:19.987Z,96.92
2019-01-24T18:12:53.364Z,96.76
2019-01-24T18:15:28.270Z,96.98
2019-01-24T18:17:59.814Z,96.68
2019-01-24T18:20:39.406Z,97.14
2019-01-24T18:23:10.395Z,97.02
2019-01-24T18:25:59.439Z,97.00
2019-01-24T18:28:47.126Z,97.20
2019-01-24T18:31:21.988Z,97.31
2019-01-24T18:33:54.142Z,97.25
2019-01-24T18:36:29.451Z,97.01
2019-01-24T18:39:11.810Z,97.10
2019-01-24T18:41:47.477Z,97.08
2019-01-24T18:44:18.372Z,96.86
2019-01-24T18:46:50.868Z,96.76
2019-01-24T18:49:23.698Z,96.71
2019-01-24T18:51:55.639Z,96.95
2019-01-24T18:54:33.199Z,97.12
2019-01-24T18:57:14.515Z,97.25
2019-01-24T18:59:47.922Z,97.17
2019-01-24T19:02:23.382Z,97.00
2019-01-24T19:04:54.292Z,96.99
2019-01-24T19:07:27.738Z,97.01
2019-01-24T19:10:04.799Z,97.13
2019-01-24T19:12:38.469Z,97.30
2019-01-24T19:15:12.591Z,97.26
2019-01-24T19:17:43.615Z,97.36
2019-01-24T19:20:20.320Z,97.66
2019-01-24T19:22:57.247Z,97.57
2019-01-24T19:25:31.837Z,97.64
2019-01-24T19:28:04.892Z,97.79
2019-01-24T19:30:40.348Z,97.99
2019-01-24T19:33:11.771Z,97.81
2019-01-24T19:35:44.874Z,97.71
2019-01-24T19:38:20.405Z,97.63
2019-01-24T19:40:56.276Z,97.65
2019-01-24T19:43:32.001Z,97.75
2019-01-24T19:46:04.963Z,97.59
2019-01-24T19:48:50.973Z,97.58
2019-01-24T19:51:22.249Z,97.84
2019-01-24T19:54:00.466Z,98.02
2019-01-24T19:56:36.938Z,97.95
2019-01-24T19:59:16.332Z,97.83
2019-01-24T20:02:04.718Z,97.78
2019-01-24T20:04:36.508Z,97.80
2019-01-24T20:07:14.182Z,97.78
2019-01-24T20:09:53.043Z,97.73
2019-01-24T20:12:27.319Z,97.93
2019-01-24T20:15:01.766Z,98.08
2019-01-24T20:17:35.379Z,98.06
2019-01-24T20:20:13.479Z,98.28
2019-01-24T20:22:48.283Z,98.30
2019-01-24T20:25:26.538Z,98.42
2019-01-24T20:28:00.380Z,98.32
2019-01-24T20:30:33.182Z,98.61
2019-01-24T20:33:04.478Z,98.84
2019-01-24T20:35:47.311Z,99.07
2019-01-24T20:38:18.473Z,98.99
2019-01-24T20:40:51.440Z,98.73
2019-01-24T20:43:22.443Z,98.85
2019-01-24T20:45:53.556Z,98.93
2019-01-24T20:48:34.458Z,99.04
2019-01-24T20:51:07.981Z,98.80
2019-01-24T20:53:39.375Z,98.63
2019-01-24T20:56:16.058Z,98.79
2019-01-24T20:58:47.233Z,99.15
2019-01-24T21:01:18.067Z,99.40
2019-01-24T21:03:55.317Z,99.16
2019-01-24T21:06:24.471Z,99.20
2019-01-24T21:08:56.030Z,98.99
2019-01-24T21:11:29.899Z,98.90
2019-01-24T21:14:00.796Z,98.96
2019-01-24T21:16:31.941Z,98.90
2019-01-24T21:19:05.705Z,98.88
2019-01-24T21:21:36.932Z,98.91
2019-01-24T21:24:10.449Z,99.21
2019-01-24T21:26:47.838Z,99.20
2019-01-24T21:29:19.203Z,99.04
2019-01-24T21:31:56.519Z,99.03
2019-01-24T21:34:33.518Z,98.93
2019-01-24T21:37:10.657Z,99.01
2019-01-24T21:39:45.243Z,99.04
2019-01-24T21:42:19.281Z,99.09
2019-01-24T21:44:51.962Z,99.52
2019-01-24T21:47:23.709Z,99.44
2019-01-24T21:49:56.246Z,99.54
2019-01-24T21:52:27.559Z,99.61
2019-01-24T21:54:58.476Z,99.58
2019-01-24T21:57:29.803Z,99.38
2019-01-24T22:00:06.028Z,99.57
2019-01-24T22:02:38.484Z,99.86
2019-01-24T22:05:09.854Z,99.72
2019-01-24T22:07:41.021Z,100.00
2019-01-24T22:10:14.498Z,100.00
2019-01-24T22:12:45.487Z,100.00
2019-01-24T22:15:18.285Z,100.00
2019-01-24T22:17:50.453Z,100.00
2019-01-24T22:20:22.618Z,100.00
2019-01-24T22:22:54.649Z,100.00
2019-01-24T22:25:29.991Z,100.00
2019-01-24T22:28:01.201Z,100.00
2019-01-24T22:30:37.667Z,100.00
2019-01-24T22:33:08.610Z,100.00
2019-01-24T22:35:39.421Z,100.00
2019-01-24T22:38:16.199Z,100.00
2019-01-24T22:40:48.759Z,100.00
2019-01-24T22:43:21.061Z,100.00
2019-01-24T22:45:52.537Z,100.00
2019-01-24T22:48:24.248Z,100.00
2019-01-24T22:51:02.871Z,100.00
2019-01-24T22:53:34.288Z,100.00
2019-01-24T22:56:06.312Z,100.00
2019-01-24T22:58:37.409Z,100.00
2019-01-24T23:01:45.085Z,100.00
2019-01-24T23:04:24.454Z,100.00
2019-01-24T23:06:55.727Z,100.00
2019-01-24T23:09:26.844Z,100.00
2019-01-24T23:12:00.511Z,100.00
2019-01-24T23:14:32.733Z,100.00
2019-01-24T23:17:03.622Z,100.00
2019-01-24T23:19:34.966Z,100.00
2019-01-24T23:22:06.198Z,100.00
2019-01-24T23:24:38.736Z,100.00
2019-01-24T23:27:13.625Z,100.00
2019-01-24T23:29:45.893Z,100.00
2019-01-24T23:32:17.250Z,100.00
2019-01-24T23:34:48.681Z,100.00
2019-01-24T23:37:28.534Z,100.00
2019-01-24T23:39:59.586Z,100.00
2019-01-24T23:42:30.956Z,100.00
2019-01-24T23:45:05.936Z,100.00
2019-01-24T23:47:39.708Z,100.00
2019-01-24T23:50:11.601Z,100.00
2019-01-24T23:52:43.165Z,100.00
2019-01-24T23:55:20.031Z,100.00
2019-01-24T23:57:51.044Z,100.00
